createdAt,value
2023-05-22T00:01:52.946Z,11.60
2023-05-22T00:04:22.445Z,11.40
2023-05-22T00:06:49.597Z,11.52
2023-05-22T00:09:16.451Z,11.50
2023-05-22T00:11:43.392Z,11.32
2023-05-22T00:14:10.110Z,12.15
2023-05-22T00:16:36.820Z,11.52
2023-05-22T00:19:04.071Z,11.98
2023-05-22T00:21:35.217Z,11.45
2023-05-22T00:24:02.392Z,12.48
2023-05-22T00:26:29.393Z,12.00
2023-05-22T00:28:56.083Z,12.43
2023-05-22T00:31:23.570Z,12.07
2023-05-22T00:33:50.372Z,12.13
2023-05-22T00:36:18.813Z,11.70
2023-05-22T00:38:45.584Z,12.23
2023-05-22T00:41:12.260Z,12.52
2023-05-22T00:43:39.498Z,12.00
2023-05-22T00:46:08.082Z,11.90
2023-05-22T00:48:34.939Z,12.45
2023-05-22T00:51:01.836Z,11.70
2023-05-22T00:53:29.375Z,11.98
2023-05-22T00:55:57.926Z,11.85
2023-05-22T00:58:26.655Z,12.05
2023-05-22T01:00:53.533Z,11.82
2023-05-22T01:03:26.688Z,11.70
2023-05-22T01:05:54.555Z,11.88
2023-05-22T01:08:22.032Z,12.05
2023-05-22T01:10:52.794Z,12.55
2023-05-22T01:14:05.755Z,12.63
2023-05-22T01:16:54.863Z,12.15
2023-05-22T01:19:41.898Z,12.07
2023-05-22T01:22:32.668Z,11.65
2023-05-22T01:25:36.620Z,11.82
2023-05-22T01:28:32.518Z,12.35
2023-05-22T01:31:17.725Z,12.23
2023-05-22T01:33:49.658Z,12.82
2023-05-22T01:36:20.584Z,12.70
2023-05-22T01:38:47.893Z,12.40
2023-05-22T01:41:14.650Z,12.13
2023-05-22T01:43:42.238Z,12.75
2023-05-22T01:46:09.076Z,12.65
2023-05-22T01:48:36.379Z,12.85
2023-05-22T01:51:09.560Z,13.05
2023-05-22T01:53:45.644Z,12.05
2023-05-22T01:56:17.245Z,12.45
2023-05-22T01:58:56.796Z,12.75
2023-05-22T02:01:24.540Z,12.63
2023-05-22T02:03:56.780Z,12.73
2023-05-22T02:06:26.080Z,12.73
2023-05-22T02:08:53.377Z,12.55
2023-05-22T02:11:21.877Z,12.65
2023-05-22T02:13:49.336Z,12.70
2023-05-22T02:16:16.142Z,12.77
2023-05-22T02:18:43.321Z,12.63
2023-05-22T02:21:10.306Z,13.38
2023-05-22T02:23:40.896Z,12.57
2023-05-22T02:26:07.816Z,12.55
2023-05-22T02:28:34.552Z,12.27
2023-05-22T02:31:01.372Z,12.50
2023-05-22T02:33:30.161Z,13.45
2023-05-22T02:35:56.917Z,13.18
2023-05-22T02:38:23.595Z,12.98
2023-05-22T02:40:50.312Z,12.15
2023-05-22T02:43:17.019Z,13.38
2023-05-22T02:45:43.699Z,13.10
2023-05-22T02:48:10.556Z,13.23
2023-05-22T02:50:37.492Z,13.40
2023-05-22T02:53:04.438Z,12.10
2023-05-22T02:55:31.373Z,12.68
2023-05-22T02:57:58.043Z,12.55
2023-05-22T03:00:24.786Z,12.55
2023-05-22T03:02:51.689Z,12.77
2023-05-22T03:05:18.651Z,13.13
2023-05-22T03:07:48.206Z,13.50
2023-05-22T03:10:15.707Z,12.55
2023-05-22T03:12:42.486Z,13.00
2023-05-22T03:15:10.019Z,13.40
2023-05-22T03:17:36.816Z,12.90
2023-05-22T03:20:05.608Z,12.82
2023-05-22T03:22:32.710Z,12.77
2023-05-22T03:24:59.388Z,13.02
2023-05-22T03:27:26.458Z,13.32
2023-05-22T03:29:53.523Z,13.38
2023-05-22T03:32:20.188Z,13.40
2023-05-22T03:34:46.889Z,12.77
2023-05-22T03:37:13.593Z,13.52
2023-05-22T03:39:40.317Z,13.15
2023-05-22T03:42:07.107Z,13.43
2023-05-22T03:44:33.876Z,13.13
2023-05-22T03:47:00.674Z,13.07
2023-05-22T03:49:27.497Z,13.27
2023-05-22T03:51:54.189Z,13.40
2023-05-22T03:54:21.338Z,13.73
2023-05-22T03:56:48.041Z,13.60
2023-05-22T03:59:14.726Z,14.10
2023-05-22T04:01:41.536Z,13.88
2023-05-22T04:04:09.818Z,14.38
2023-05-22T04:06:43.634Z,13.73
2023-05-22T04:09:12.054Z,13.82
2023-05-22T04:11:42.652Z,13.43
2023-05-22T04:14:09.693Z,14.20
2023-05-22T04:16:36.491Z,14.15
2023-05-22T04:19:03.693Z,13.82
2023-05-22T04:21:34.610Z,15.13
2023-05-22T04:24:02.480Z,15.48
2023-05-22T04:26:32.550Z,13.40
2023-05-22T04:28:59.294Z,14.60
2023-05-22T04:31:26.397Z,14.10
2023-05-22T04:33:54.803Z,13.82
2023-05-22T04:36:26.341Z,14.00
2023-05-22T04:38:54.297Z,13.75
2023-05-22T04:41:22.821Z,14.40
2023-05-22T04:43:49.725Z,13.82
2023-05-22T04:46:16.556Z,14.40
2023-05-22T04:48:43.315Z,14.32
2023-05-22T04:51:10.154Z,13.68
2023-05-22T04:53:38.850Z,15.10
2023-05-22T04:56:06.526Z,15.07
2023-05-22T04:58:33.528Z,13.60
2023-05-22T05:01:00.462Z,14.10
2023-05-22T05:03:27.793Z,14.23
2023-05-22T05:05:54.816Z,14.50
2023-05-22T05:08:21.757Z,13.95
2023-05-22T05:10:48.485Z,13.48
2023-05-22T05:13:15.167Z,13.90
2023-05-22T05:15:41.919Z,13.48
2023-05-22T05:18:08.862Z,13.48
2023-05-22T05:20:36.120Z,12.90
2023-05-22T05:23:02.816Z,13.27
2023-05-22T05:25:29.627Z,13.43
2023-05-22T05:27:56.690Z,12.75
2023-05-22T05:30:23.620Z,12.30
2023-05-22T05:32:50.376Z,12.80
2023-05-22T05:35:17.128Z,13.00
2023-05-22T05:37:43.837Z,13.20
2023-05-22T05:40:11.349Z,13.35
2023-05-22T05:42:38.213Z,13.18
2023-05-22T05:45:05.555Z,14.23
2023-05-22T05:47:32.637Z,13.13
2023-05-22T05:49:59.534Z,13.13
2023-05-22T05:52:27.412Z,13.50
2023-05-22T05:54:54.141Z,13.27
2023-05-22T05:57:22.236Z,13.05
2023-05-22T05:59:49.270Z,13.40
2023-05-22T06:02:16.399Z,12.70
2023-05-22T06:04:43.420Z,13.15
2023-05-22T06:07:10.128Z,13.38
2023-05-22T06:09:36.818Z,13.10
2023-05-22T06:12:04.174Z,12.80
2023-05-22T06:14:31.041Z,13.13
2023-05-22T06:16:58.053Z,12.98
2023-05-22T06:19:25.007Z,13.45
2023-05-22T06:21:52.216Z,12.27
2023-05-22T06:24:20.075Z,13.75
2023-05-22T06:26:46.778Z,13.00
2023-05-22T06:29:13.428Z,13.27
2023-05-22T06:31:40.244Z,12.60
2023-05-22T06:34:07.211Z,13.02
2023-05-22T06:36:35.041Z,13.23
2023-05-22T06:39:02.606Z,12.75
2023-05-22T06:41:29.570Z,12.10
2023-05-22T06:43:56.266Z,12.90
2023-05-22T06:46:25.960Z,12.52
2023-05-22T06:48:53.416Z,12.55
2023-05-22T06:51:21.639Z,12.52
2023-05-22T06:53:48.549Z,11.73
2023-05-22T06:56:15.229Z,12.05
2023-05-22T06:58:41.938Z,12.38
2023-05-22T07:01:08.735Z,12.57
2023-05-22T07:03:36.053Z,12.70
2023-05-22T07:06:03.390Z,12.45
2023-05-22T07:08:30.721Z,11.45
2023-05-22T07:10:57.779Z,12.57
2023-05-22T07:13:25.154Z,12.30
2023-05-22T07:15:51.946Z,12.07
2023-05-22T07:18:19.367Z,11.88
2023-05-22T07:20:47.320Z,11.95
2023-05-22T07:23:13.990Z,12.18
2023-05-22T07:25:40.855Z,11.90
2023-05-22T07:28:09.302Z,12.75
2023-05-22T07:30:37.823Z,12.40
2023-05-22T07:33:05.509Z,11.32
2023-05-22T07:35:32.502Z,11.45
2023-05-22T07:37:59.221Z,11.70
2023-05-22T07:40:26.713Z,11.27
2023-05-22T07:42:53.689Z,11.38
2023-05-22T07:45:20.439Z,11.85
2023-05-22T07:47:47.413Z,12.70
2023-05-22T07:50:14.087Z,11.25
2023-05-22T07:52:40.825Z,10.38
2023-05-22T07:55:08.414Z,10.82
2023-05-22T07:57:36.522Z,10.27
2023-05-22T08:00:14.043Z,10.70
2023-05-22T08:02:41.906Z,10.77
2023-05-22T08:05:09.774Z,10.75
2023-05-22T08:07:37.214Z,10.40
2023-05-22T08:10:08.828Z,10.05
2023-05-22T08:12:35.614Z,10.13
2023-05-22T08:15:02.293Z,9.90
2023-05-22T08:17:29.004Z,9.98
2023-05-22T08:19:56.172Z,10.27
2023-05-22T08:22:22.891Z,10.00
2023-05-22T08:24:49.653Z,10.05
2023-05-22T08:27:16.349Z,9.13
2023-05-22T08:29:43.009Z,9.55
2023-05-22T08:32:10.511Z,10.00
2023-05-22T08:34:37.203Z,9.68
2023-05-22T08:37:05.541Z,9.30
2023-05-22T08:39:32.452Z,9.43
2023-05-22T08:41:59.626Z,9.10
2023-05-22T08:44:26.431Z,8.90
2023-05-22T08:46:56.803Z,9.45
2023-05-22T08:49:24.536Z,9.68
2023-05-22T08:51:54.914Z,9.60
2023-05-22T08:54:23.177Z,10.00
2023-05-22T08:56:56.879Z,9.13
2023-05-22T08:59:24.666Z,9.80
2023-05-22T09:01:53.052Z,9.55
2023-05-22T09:04:23.341Z,9.73
2023-05-22T09:06:50.871Z,9.45
2023-05-22T09:09:18.417Z,9.70
2023-05-22T09:11:45.121Z,9.27
2023-05-22T09:14:12.315Z,9.27
2023-05-22T09:16:49.282Z,9.18
2023-05-22T09:19:16.630Z,9.05
2023-05-22T09:21:44.602Z,10.10
2023-05-22T09:24:12.469Z,9.02
2023-05-22T09:26:39.818Z,9.32
2023-05-22T09:29:10.013Z,9.32
2023-05-22T09:31:44.466Z,8.65
2023-05-22T09:34:14.480Z,9.35
2023-05-22T09:36:42.168Z,9.38
2023-05-22T09:39:09.749Z,9.15
2023-05-22T09:41:38.746Z,8.90
2023-05-22T09:44:15.611Z,8.95
2023-05-22T09:46:44.703Z,9.05
2023-05-22T09:49:14.160Z,8.82
2023-05-22T09:51:44.196Z,9.40
2023-05-22T09:54:12.537Z,8.90
2023-05-22T09:56:40.476Z,9.32
2023-05-22T09:59:09.831Z,9.00
2023-05-22T10:01:39.217Z,8.73
2023-05-22T10:04:06.842Z,8.57
2023-05-22T10:06:34.947Z,8.77
2023-05-22T10:09:07.396Z,8.55
2023-05-22T10:11:34.483Z,8.70
2023-05-22T10:14:02.974Z,8.75
2023-05-22T10:16:30.743Z,8.52
2023-05-22T10:18:58.621Z,8.40
2023-05-22T10:21:26.113Z,8.82
2023-05-22T10:23:53.993Z,9.02
2023-05-22T10:26:21.605Z,8.48
2023-05-22T10:28:59.776Z,8.13
2023-05-22T10:32:02.352Z,9.05
2023-05-22T10:34:42.808Z,8.30
2023-05-22T10:37:37.600Z,8.82
2023-05-22T10:40:31.372Z,8.57
2023-05-22T10:43:02.932Z,8.60
2023-05-22T10:45:30.285Z,8.30
2023-05-22T10:48:08.066Z,8.55
2023-05-22T10:50:36.013Z,8.45
2023-05-22T10:53:25.535Z,8.50
2023-05-22T10:55:53.717Z,8.40
2023-05-22T10:58:56.341Z,8.43
2023-05-22T11:01:26.037Z,8.45
2023-05-22T11:03:59.854Z,8.50
2023-05-22T11:06:47.149Z,8.60
2023-05-22T11:09:54.618Z,8.25
2023-05-22T11:12:31.384Z,7.82
2023-05-22T11:15:09.514Z,8.48
2023-05-22T11:17:51.800Z,8.52
2023-05-22T11:20:26.071Z,7.80
2023-05-22T11:23:00.771Z,7.55
2023-05-22T11:25:28.958Z,7.70
2023-05-22T11:27:56.492Z,7.35
2023-05-22T11:30:27.454Z,8.00
2023-05-22T11:32:54.638Z,7.85
2023-05-22T11:35:22.532Z,8.15
2023-05-22T11:37:51.566Z,7.50
2023-05-22T11:40:29.824Z,7.30
2023-05-22T11:42:57.158Z,7.40
2023-05-22T11:45:24.180Z,7.07
2023-05-22T11:47:50.946Z,7.18
2023-05-22T11:50:29.228Z,7.53
2023-05-22T11:53:05.220Z,6.82
2023-05-22T11:55:33.565Z,6.45
2023-05-22T11:58:02.309Z,7.18
2023-05-22T12:00:29.695Z,7.10
2023-05-22T12:02:57.038Z,7.00
2023-05-22T12:05:23.750Z,6.82
2023-05-22T12:07:50.572Z,6.45
2023-05-22T12:10:17.295Z,6.57
2023-05-22T12:12:44.173Z,6.35
2023-05-22T12:15:11.747Z,6.35
2023-05-22T12:17:38.864Z,6.43
2023-05-22T12:20:07.591Z,6.85
2023-05-22T12:22:34.415Z,6.97
2023-05-22T12:25:01.219Z,7.00
2023-05-22T12:27:34.529Z,6.47
2023-05-22T12:30:10.721Z,6.22
2023-05-22T12:32:37.552Z,6.25
2023-05-22T12:35:04.852Z,6.43
2023-05-22T12:37:33.689Z,6.70
2023-05-22T12:40:04.386Z,6.55
2023-05-22T12:42:31.268Z,6.45
2023-05-22T12:44:58.433Z,6.72
2023-05-22T12:47:25.650Z,7.15
2023-05-22T12:49:52.704Z,7.00
2023-05-22T12:52:19.602Z,6.38
2023-05-22T12:54:46.432Z,6.97
2023-05-22T12:57:13.139Z,7.15
2023-05-22T12:59:40.112Z,6.78
2023-05-22T13:02:07.358Z,7.00
2023-05-22T13:04:34.285Z,6.55
2023-05-22T13:07:01.220Z,7.15
2023-05-22T13:09:28.134Z,6.60
2023-05-22T13:11:55.357Z,6.40
2023-05-22T13:14:22.115Z,6.88
2023-05-22T13:16:49.396Z,6.50
2023-05-22T13:19:16.512Z,7.13
2023-05-22T13:21:44.388Z,6.97
2023-05-22T13:24:11.202Z,6.75
2023-05-22T13:26:37.946Z,6.60
2023-05-22T13:29:04.707Z,6.60
2023-05-22T13:31:33.985Z,7.00
2023-05-22T13:34:03.106Z,6.93
2023-05-22T13:36:30.460Z,6.50
2023-05-22T13:38:57.253Z,7.63
2023-05-22T13:41:24.292Z,7.55
2023-05-22T13:43:50.941Z,9.23
2023-05-22T13:46:18.460Z,6.28
2023-05-22T13:48:45.242Z,6.32
2023-05-22T13:51:12.012Z,6.47
2023-05-22T13:53:38.920Z,6.80
2023-05-22T13:56:05.891Z,6.65
2023-05-22T13:58:32.579Z,6.40
2023-05-22T14:00:59.315Z,6.28
2023-05-22T14:03:26.095Z,13.68
2023-05-22T14:05:53.078Z,7.25
2023-05-22T14:08:19.804Z,13.48
2023-05-22T14:10:46.824Z,6.38
2023-05-22T14:13:13.625Z,6.35
2023-05-22T14:15:40.610Z,6.72
2023-05-22T14:18:07.640Z,6.53
2023-05-22T14:20:34.523Z,6.35
2023-05-22T14:23:01.179Z,6.20
2023-05-22T14:25:28.030Z,6.40
2023-05-22T14:27:54.947Z,6.38
2023-05-22T14:30:21.870Z,6.25
2023-05-22T14:32:48.935Z,6.43
2023-05-22T14:35:16.946Z,6.30
2023-05-22T14:37:43.977Z,6.22
2023-05-22T14:40:11.217Z,6.35
2023-05-22T14:42:37.989Z,6.35
2023-05-22T14:45:05.349Z,6.15
2023-05-22T14:47:32.014Z,6.20
2023-05-22T14:50:10.278Z,6.20
2023-05-22T14:52:45.407Z,6.32
2023-05-22T14:55:12.185Z,6.10
2023-05-22T14:57:38.946Z,6.25
2023-05-22T15:00:06.788Z,6.15
2023-05-22T15:02:33.606Z,6.03
2023-05-22T15:05:00.720Z,5.68
2023-05-22T15:07:35.952Z,5.85
2023-05-22T15:10:10.650Z,6.22
2023-05-22T15:12:37.420Z,6.35
2023-05-22T15:15:04.888Z,5.88
2023-05-22T15:17:31.676Z,5.82
2023-05-22T15:19:58.412Z,6.68
2023-05-22T15:22:25.342Z,5.93
2023-05-22T15:25:07.569Z,5.80
2023-05-22T15:27:35.499Z,6.05
2023-05-22T15:30:04.322Z,6.43
2023-05-22T15:32:34.466Z,6.30
2023-05-22T15:35:01.184Z,6.30
2023-05-22T15:37:30.216Z,5.78
2023-05-22T15:39:58.241Z,5.88
2023-05-22T15:42:25.146Z,6.03
2023-05-22T15:44:51.907Z,6.07
2023-05-22T15:47:19.232Z,5.78
2023-05-22T15:49:46.167Z,6.50
2023-05-22T15:52:12.843Z,6.43
2023-05-22T15:54:39.576Z,6.55
2023-05-22T15:57:06.507Z,5.47
2023-05-22T15:59:33.237Z,6.00
2023-05-22T16:02:00.059Z,6.03
2023-05-22T16:04:26.890Z,6.30
2023-05-22T16:06:53.969Z,6.25
2023-05-22T16:09:20.884Z,7.00
2023-05-22T16:11:47.653Z,6.88
2023-05-22T16:14:14.393Z,6.90
2023-05-22T16:16:41.531Z,6.82
2023-05-22T16:19:08.485Z,7.72
2023-05-22T16:21:35.222Z,7.05
2023-05-22T16:24:02.054Z,6.85
2023-05-22T16:26:28.772Z,7.15
2023-05-22T16:28:55.445Z,6.85
2023-05-22T16:31:22.589Z,6.80
2023-05-22T16:33:49.360Z,7.07
2023-05-22T16:36:16.135Z,6.75
2023-05-22T16:38:42.953Z,6.90
2023-05-22T16:41:09.654Z,6.88
2023-05-22T16:43:37.893Z,7.10
2023-05-22T16:46:04.897Z,6.50
2023-05-22T16:48:31.868Z,7.05
2023-05-22T16:50:58.864Z,6.72
2023-05-22T16:53:25.640Z,7.00
2023-05-22T16:55:52.667Z,6.50
2023-05-22T16:58:19.426Z,6.57
2023-05-22T17:00:46.226Z,6.43
2023-05-22T17:03:14.412Z,6.78
2023-05-22T17:05:41.449Z,6.32
2023-05-22T17:08:08.581Z,6.45
2023-05-22T17:10:35.638Z,6.20
2023-05-22T17:13:02.334Z,6.57
2023-05-22T17:15:29.098Z,6.25
2023-05-22T17:17:55.943Z,6.38
2023-05-22T17:20:23.269Z,6.88
2023-05-22T17:22:50.298Z,7.03
2023-05-22T17:25:17.265Z,7.10
2023-05-22T17:27:44.442Z,7.40
2023-05-22T17:30:11.648Z,7.30
2023-05-22T17:32:38.470Z,6.45
2023-05-22T17:35:07.060Z,6.97
2023-05-22T17:37:34.271Z,7.72
2023-05-22T17:40:01.276Z,6.93
2023-05-22T17:42:28.019Z,7.30
2023-05-22T17:44:54.796Z,7.30
2023-05-22T17:47:21.891Z,7.30
2023-05-22T17:49:48.835Z,7.53
2023-05-22T17:52:15.814Z,7.28
2023-05-22T17:54:42.505Z,7.38
2023-05-22T17:57:09.263Z,7.50
2023-05-22T17:59:37.895Z,6.88
2023-05-22T18:02:06.281Z,7.32
2023-05-22T18:04:36.872Z,7.55
2023-05-22T18:07:04.392Z,7.13
2023-05-22T18:09:31.103Z,7.47
2023-05-22T18:11:59.367Z,6.93
2023-05-22T18:14:26.263Z,6.57
2023-05-22T18:16:53.542Z,7.00
2023-05-22T18:19:20.192Z,6.90
2023-05-22T18:21:46.896Z,6.30
2023-05-22T18:24:13.719Z,6.57
2023-05-22T18:26:40.421Z,6.10
2023-05-22T18:29:07.118Z,6.38
2023-05-22T18:31:33.920Z,6.25
2023-05-22T18:34:00.746Z,6.82
2023-05-22T18:36:27.697Z,6.70
2023-05-22T18:38:54.394Z,6.70
2023-05-22T18:41:21.169Z,6.90
2023-05-22T18:43:47.842Z,6.82
2023-05-22T18:46:14.632Z,7.13
2023-05-22T18:48:41.557Z,6.70
2023-05-22T18:51:08.247Z,6.97
2023-05-22T18:53:34.935Z,7.10
2023-05-22T18:56:01.898Z,7.10
2023-05-22T18:58:28.609Z,6.97
2023-05-22T19:00:56.179Z,6.90
2023-05-22T19:03:23.120Z,5.70
2023-05-22T19:05:49.830Z,4.93
2023-05-22T19:08:16.507Z,4.57
2023-05-22T19:10:43.360Z,5.13
2023-05-22T19:13:10.179Z,5.43
2023-05-22T19:15:37.832Z,5.25
2023-05-22T19:18:04.682Z,5.50
2023-05-22T19:20:31.732Z,6.03
2023-05-22T19:22:58.716Z,6.43
2023-05-22T19:25:25.752Z,5.95
2023-05-22T19:27:52.540Z,6.30
2023-05-22T19:30:19.408Z,6.93
2023-05-22T19:32:47.012Z,6.97
2023-05-22T19:35:14.135Z,7.25
2023-05-22T19:37:40.804Z,6.55
2023-05-22T19:40:09.920Z,6.82
2023-05-22T19:42:37.690Z,7.40
2023-05-22T19:45:05.936Z,7.03
2023-05-22T19:47:32.796Z,6.82
2023-05-22T19:49:59.652Z,7.13
2023-05-22T19:52:29.244Z,7.88
2023-05-22T19:54:56.196Z,7.70
2023-05-22T19:57:22.948Z,7.90
2023-05-22T19:59:50.361Z,8.00
2023-05-22T20:02:17.197Z,8.45
2023-05-22T20:04:44.006Z,7.90
2023-05-22T20:07:10.856Z,8.57
2023-05-22T20:09:37.558Z,7.30
2023-05-22T20:12:04.432Z,7.13
2023-05-22T20:14:31.174Z,8.40
2023-05-22T20:16:59.263Z,8.80
2023-05-22T20:19:27.431Z,8.50
2023-05-22T20:21:54.356Z,8.90
2023-05-22T20:24:21.406Z,8.95
2023-05-22T20:26:48.187Z,8.30
2023-05-22T20:29:15.034Z,8.30
2023-05-22T20:31:42.256Z,8.00
2023-05-22T20:34:12.002Z,7.53
2023-05-22T20:36:39.575Z,7.05
2023-05-22T20:39:07.166Z,7.20
2023-05-22T20:41:34.114Z,6.90
2023-05-22T20:44:02.836Z,6.70
2023-05-22T20:46:29.740Z,6.65
2023-05-22T20:48:58.570Z,7.10
2023-05-22T20:51:32.666Z,7.03
2023-05-22T20:54:00.259Z,7.32
2023-05-22T20:56:27.338Z,7.30
2023-05-22T20:58:54.564Z,7.15
2023-05-22T21:01:21.556Z,7.30
2023-05-22T21:03:50.355Z,7.45
2023-05-22T21:06:17.474Z,8.02
2023-05-22T21:08:44.183Z,8.07
2023-05-22T21:11:11.003Z,8.05
2023-05-22T21:13:37.732Z,7.78
2023-05-22T21:16:04.641Z,8.00
2023-05-22T21:18:31.382Z,8.15
2023-05-22T21:20:58.141Z,8.25
2023-05-22T21:23:24.859Z,9.10
2023-05-22T21:25:51.693Z,7.75
2023-05-22T21:28:18.373Z,7.82
2023-05-22T21:30:45.213Z,8.50
2023-05-22T21:33:12.272Z,7.82
2023-05-22T21:35:39.311Z,8.25
2023-05-22T21:38:06.003Z,8.68
2023-05-22T21:40:32.715Z,8.05
2023-05-22T21:42:59.450Z,8.80
2023-05-22T21:45:26.113Z,8.52
2023-05-22T21:47:52.952Z,7.82
2023-05-22T21:50:19.749Z,8.32
2023-05-22T21:52:46.435Z,7.95
2023-05-22T21:55:13.149Z,7.80
2023-05-22T21:57:42.334Z,8.57
2023-05-22T22:00:09.941Z,7.53
2023-05-22T22:02:37.281Z,8.10
2023-05-22T22:05:04.728Z,8.88
2023-05-22T22:07:31.536Z,8.00
2023-05-22T22:09:59.130Z,8.25
2023-05-22T22:12:26.046Z,8.80
2023-05-22T22:14:52.815Z,8.57
2023-05-22T22:17:23.985Z,8.23
2023-05-22T22:19:53.775Z,8.30
2023-05-22T22:22:22.868Z,8.60
2023-05-22T22:24:49.727Z,8.25
2023-05-22T22:27:16.687Z,7.93
2023-05-22T22:29:44.148Z,8.52
2023-05-22T22:32:11.030Z,8.18
2023-05-22T22:34:38.076Z,8.20
2023-05-22T22:37:06.150Z,8.40
2023-05-22T22:39:32.837Z,8.40
2023-05-22T22:42:04.334Z,8.55
2023-05-22T22:44:32.438Z,9.00
2023-05-22T22:46:59.361Z,9.25
2023-05-22T22:49:26.048Z,8.52
2023-05-22T22:51:52.793Z,8.95
2023-05-22T22:54:19.853Z,9.32
2023-05-22T22:56:47.321Z,9.05
2023-05-22T22:59:14.074Z,9.52
2023-05-22T23:01:40.967Z,8.90
2023-05-22T23:04:07.961Z,8.85
2023-05-22T23:06:34.873Z,8.90
2023-05-22T23:09:03.599Z,8.90
2023-05-22T23:11:39.462Z,8.60
2023-05-22T23:14:10.012Z,8.55
2023-05-22T23:16:37.811Z,8.40
2023-05-22T23:19:04.906Z,8.57
2023-05-22T23:21:32.111Z,8.82
2023-05-22T23:23:59.607Z,8.90
2023-05-22T23:26:27.649Z,9.50
2023-05-22T23:28:54.739Z,9.55
2023-05-22T23:31:26.142Z,9.70
2023-05-22T23:33:53.336Z,9.15
2023-05-22T23:36:20.043Z,10.65
2023-05-22T23:38:47.343Z,9.25
2023-05-22T23:41:15.354Z,9.45
2023-05-22T23:43:42.497Z,9.43
2023-05-22T23:46:09.269Z,10.10
2023-05-22T23:48:36.220Z,9.38
2023-05-22T23:51:03.117Z,9.57
2023-05-22T23:53:29.860Z,9.65
2023-05-22T23:55:56.564Z,8.98
2023-05-22T23:58:23.520Z,9.32
